sensor_id;sensor_type;location;lat;lon;timestamp;temperature;humidity
36660;DHT22;22654;51.054;3.654;2023-04-15T00:00:28;11.00;99.90
36660;DHT22;22654;51.054;3.654;2023-04-15T00:02:54;10.70;99.90
36660;DHT22;22654;51.054;3.654;2023-04-15T00:05:20;10.40;99.90
36660;DHT22;22654;51.054;3.654;2023-04-15T00:07:46;10.20;99.90
36660;DHT22;22654;51.054;3.654;2023-04-15T00:10:12;10.10;99.90
36660;DHT22;22654;51.054;3.654;2023-04-15T00:12:38;10.00;99.90
36660;DHT22;22654;51.054;3.654;2023-04-15T00:15:04;9.90;99.90
36660;DHT22;22654;51.054;3.654;2023-04-15T00:17:31;10.00;99.90
36660;DHT22;22654;51.054;3.654;2023-04-15T00:19:56;10.30;99.90
36660;DHT22;22654;51.054;3.654;2023-04-15T00:22:24;10.60;99.90
36660;DHT22;22654;51.054;3.654;2023-04-15T00:24:51;10.90;99.90
36660;DHT22;22654;51.054;3.654;2023-04-15T00:27:17;11.30;99.90
36660;DHT22;22654;51.054;3.654;2023-04-15T00:29:43;11.40;99.90
36660;DHT22;22654;51.054;3.654;2023-04-15T00:32:08;11.20;99.90
36660;DHT22;22654;51.054;3.654;2023-04-15T00:34:34;11.20;99.90
36660;DHT22;22654;51.054;3.654;2023-04-15T00:37:00;11.10;99.90
36660;DHT22;22654;51.054;3.654;2023-04-15T00:39:26;11.10;99.90
36660;DHT22;22654;51.054;3.654;2023-04-15T00:41:52;10.90;99.90
36660;DHT22;22654;51.054;3.654;2023-04-15T00:44:18;10.50;99.90
36660;DHT22;22654;51.054;3.654;2023-04-15T00:46:44;10.40;99.90
36660;DHT22;22654;51.054;3.654;2023-04-15T00:49:11;10.40;99.90
36660;DHT22;22654;51.054;3.654;2023-04-15T00:51:37;10.60;99.90
36660;DHT22;22654;51.054;3.654;2023-04-15T00:54:06;10.70;99.90
36660;DHT22;22654;51.054;3.654;2023-04-15T00:56:35;10.80;99.90
36660;DHT22;22654;51.054;3.654;2023-04-15T00:59:05;10.50;99.90
36660;DHT22;22654;51.054;3.654;2023-04-15T01:01:32;10.20;99.90
36660;DHT22;22654;51.054;3.654;2023-04-15T01:03:58;10.10;99.90
36660;DHT22;22654;51.054;3.654;2023-04-15T01:06:25;10.40;99.90
36660;DHT22;22654;51.054;3.654;2023-04-15T01:08:52;10.70;99.90
36660;DHT22;22654;51.054;3.654;2023-04-15T01:11:18;10.80;99.90
36660;DHT22;22654;51.054;3.654;2023-04-15T01:13:44;10.50;99.90
36660;DHT22;22654;51.054;3.654;2023-04-15T01:16:11;10.50;99.90
36660;DHT22;22654;51.054;3.654;2023-04-15T01:18:37;10.50;99.90
36660;DHT22;22654;51.054;3.654;2023-04-15T01:21:05;10.40;99.90
36660;DHT22;22654;51.054;3.654;2023-04-15T01:23:33;10.20;99.90
36660;DHT22;22654;51.054;3.654;2023-04-15T01:26:01;10.00;99.90
36660;DHT22;22654;51.054;3.654;2023-04-15T01:28:34;9.90;99.90
36660;DHT22;22654;51.054;3.654;2023-04-15T01:31:04;9.70;99.90
36660;DHT22;22654;51.054;3.654;2023-04-15T01:33:35;9.50;99.90
36660;DHT22;22654;51.054;3.654;2023-04-15T01:36:01;9.40;99.90
36660;DHT22;22654;51.054;3.654;2023-04-15T01:38:27;9.40;99.90
36660;DHT22;22654;51.054;3.654;2023-04-15T01:40:53;9.30;99.90
36660;DHT22;22654;51.054;3.654;2023-04-15T01:43:20;9.40;99.90
36660;DHT22;22654;51.054;3.654;2023-04-15T01:45:46;9.40;99.90
36660;DHT22;22654;51.054;3.654;2023-04-15T01:48:12;9.40;99.90
36660;DHT22;22654;51.054;3.654;2023-04-15T01:50:37;9.40;99.90
36660;DHT22;22654;51.054;3.654;2023-04-15T01:53:03;9.30;99.90
36660;DHT22;22654;51.054;3.654;2023-04-15T01:55:29;9.30;99.90
36660;DHT22;22654;51.054;3.654;2023-04-15T01:57:55;9.30;99.90
36660;DHT22;22654;51.054;3.654;2023-04-15T02:00:21;9.20;99.90
36660;DHT22;22654;51.054;3.654;2023-04-15T02:02:47;9.10;99.90
36660;DHT22;22654;51.054;3.654;2023-04-15T02:05:13;9.10;99.90
36660;DHT22;22654;51.054;3.654;2023-04-15T02:07:46;9.10;99.90
36660;DHT22;22654;51.054;3.654;2023-04-15T02:10:12;9.20;99.90
36660;DHT22;22654;51.054;3.654;2023-04-15T02:12:38;9.10;99.90
36660;DHT22;22654;51.054;3.654;2023-04-15T02:15:05;9.00;99.90
36660;DHT22;22654;51.054;3.654;2023-04-15T02:17:35;9.00;99.90
36660;DHT22;22654;51.054;3.654;2023-04-15T02:20:02;9.20;99.90
36660;DHT22;22654;51.054;3.654;2023-04-15T02:22:30;9.20;99.90
36660;DHT22;22654;51.054;3.654;2023-04-15T02:24:56;9.20;99.90
36660;DHT22;22654;51.054;3.654;2023-04-15T02:27:22;9.30;99.90
36660;DHT22;22654;51.054;3.654;2023-04-15T02:29:49;9.50;99.90
36660;DHT22;22654;51.054;3.654;2023-04-15T02:32:17;9.60;99.90
36660;DHT22;22654;51.054;3.654;2023-04-15T02:34:45;9.50;99.90
36660;DHT22;22654;51.054;3.654;2023-04-15T02:37:12;9.30;99.90
36660;DHT22;22654;51.054;3.654;2023-04-15T02:39:38;9.30;99.90
36660;DHT22;22654;51.054;3.654;2023-04-15T02:42:07;9.30;99.90
36660;DHT22;22654;51.054;3.654;2023-04-15T02:44:35;9.20;99.90
36660;DHT22;22654;51.054;3.654;2023-04-15T02:47:03;9.10;99.90
36660;DHT22;22654;51.054;3.654;2023-04-15T02:49:32;9.10;99.90
36660;DHT22;22654;51.054;3.654;2023-04-15T02:51:59;9.20;99.90
36660;DHT22;22654;51.054;3.654;2023-04-15T02:54:25;9.40;99.90
36660;DHT22;22654;51.054;3.654;2023-04-15T02:56:56;9.70;99.90
36660;DHT22;22654;51.054;3.654;2023-04-15T02:59:22;9.80;99.90
36660;DHT22;22654;51.054;3.654;2023-04-15T03:01:48;9.70;99.90
36660;DHT22;22654;51.054;3.654;2023-04-15T03:04:14;9.90;99.90
36660;DHT22;22654;51.054;3.654;2023-04-15T03:06:42;9.70;99.90
36660;DHT22;22654;51.054;3.654;2023-04-15T03:09:08;9.80;99.90
36660;DHT22;22654;51.054;3.654;2023-04-15T03:11:37;9.50;99.90
36660;DHT22;22654;51.054;3.654;2023-04-15T03:14:06;9.60;99.90
36660;DHT22;22654;51.054;3.654;2023-04-15T03:16:35;9.50;99.90
36660;DHT22;22654;51.054;3.654;2023-04-15T03:19:04;9.50;99.90
36660;DHT22;22654;51.054;3.654;2023-04-15T03:21:32;9.60;99.90
36660;DHT22;22654;51.054;3.654;2023-04-15T03:23:58;9.70;99.90
36660;DHT22;22654;51.054;3.654;2023-04-15T03:26:30;9.60;99.90
36660;DHT22;22654;51.054;3.654;2023-04-15T03:29:03;9.50;99.90
36660;DHT22;22654;51.054;3.654;2023-04-15T03:31:29;9.30;99.90
36660;DHT22;22654;51.054;3.654;2023-04-15T03:33:54;9.60;99.90
36660;DHT22;22654;51.054;3.654;2023-04-15T03:36:20;9.80;99.90
36660;DHT22;22654;51.054;3.654;2023-04-15T03:38:46;9.60;99.90
36660;DHT22;22654;51.054;3.654;2023-04-15T03:41:12;9.50;99.90
36660;DHT22;22654;51.054;3.654;2023-04-15T03:43:37;9.60;99.90
36660;DHT22;22654;51.054;3.654;2023-04-15T03:46:03;9.60;99.90
36660;DHT22;22654;51.054;3.654;2023-04-15T03:48:29;9.90;99.90
36660;DHT22;22654;51.054;3.654;2023-04-15T03:50:54;9.90;99.90
36660;DHT22;22654;51.054;3.654;2023-04-15T03:53:20;9.70;99.90
36660;DHT22;22654;51.054;3.654;2023-04-15T03:55:46;10.00;99.90
36660;DHT22;22654;51.054;3.654;2023-04-15T03:58:12;9.80;99.90
36660;DHT22;22654;51.054;3.654;2023-04-15T04:00:38;9.90;99.90
36660;DHT22;22654;51.054;3.654;2023-04-15T04:03:04;9.80;99.90
36660;DHT22;22654;51.054;3.654;2023-04-15T04:05:30;9.80;99.90
36660;DHT22;22654;51.054;3.654;2023-04-15T04:07:55;9.70;99.90
36660;DHT22;22654;51.054;3.654;2023-04-15T04:10:21;9.70;99.90
36660;DHT22;22654;51.054;3.654;2023-04-15T04:12:50;9.60;99.90
36660;DHT22;22654;51.054;3.654;2023-04-15T04:15:15;9.40;99.90
36660;DHT22;22654;51.054;3.654;2023-04-15T04:17:43;9.50;99.90
36660;DHT22;22654;51.054;3.654;2023-04-15T04:20:09;9.50;99.90
36660;DHT22;22654;51.054;3.654;2023-04-15T04:22:38;9.50;99.90
36660;DHT22;22654;51.054;3.654;2023-04-15T04:25:07;9.40;99.90
36660;DHT22;22654;51.054;3.654;2023-04-15T04:27:34;9.20;99.90
36660;DHT22;22654;51.054;3.654;2023-04-15T04:30:00;9.20;99.90
36660;DHT22;22654;51.054;3.654;2023-04-15T04:32:26;9.20;99.90
36660;DHT22;22654;51.054;3.654;2023-04-15T04:34:52;9.20;99.90
36660;DHT22;22654;51.054;3.654;2023-04-15T04:37:18;9.10;99.90
36660;DHT22;22654;51.054;3.654;2023-04-15T04:39:44;9.10;99.90
36660;DHT22;22654;51.054;3.654;2023-04-15T04:42:09;9.10;99.90
36660;DHT22;22654;51.054;3.654;2023-04-15T04:44:35;9.20;99.90
36660;DHT22;22654;51.054;3.654;2023-04-15T04:47:01;9.30;99.90
36660;DHT22;22654;51.054;3.654;2023-04-15T04:49:27;9.40;99.90
36660;DHT22;22654;51.054;3.654;2023-04-15T04:51:53;9.30;99.90
36660;DHT22;22654;51.054;3.654;2023-04-15T04:54:19;9.30;99.90
36660;DHT22;22654;51.054;3.654;2023-04-15T04:56:45;9.40;99.90
36660;DHT22;22654;51.054;3.654;2023-04-15T04:59:11;9.40;99.90
36660;DHT22;22654;51.054;3.654;2023-04-15T05:01:43;9.50;99.90
36660;DHT22;22654;51.054;3.654;2023-04-15T05:04:09;9.50;99.90
36660;DHT22;22654;51.054;3.654;2023-04-15T05:06:35;9.50;99.90
36660;DHT22;22654;51.054;3.654;2023-04-15T05:09:01;9.60;99.90
36660;DHT22;22654;51.054;3.654;2023-04-15T05:11:28;9.70;99.90
36660;DHT22;22654;51.054;3.654;2023-04-15T05:13:53;9.60;99.90
36660;DHT22;22654;51.054;3.654;2023-04-15T05:16:19;9.80;99.90
36660;DHT22;22654;51.054;3.654;2023-04-15T05:18:45;9.80;99.90
36660;DHT22;22654;51.054;3.654;2023-04-15T05:21:13;10.00;99.90
36660;DHT22;22654;51.054;3.654;2023-04-15T05:23:40;10.10;99.90
36660;DHT22;22654;51.054;3.654;2023-04-15T05:26:05;9.80;99.90
36660;DHT22;22654;51.054;3.654;2023-04-15T05:28:31;9.80;99.90
36660;DHT22;22654;51.054;3.654;2023-04-15T05:30:57;9.70;99.90
36660;DHT22;22654;51.054;3.654;2023-04-15T05:33:22;9.80;99.90
36660;DHT22;22654;51.054;3.654;2023-04-15T05:35:48;9.80;99.90
36660;DHT22;22654;51.054;3.654;2023-04-15T05:38:14;9.70;99.90
36660;DHT22;22654;51.054;3.654;2023-04-15T05:40:40;10.00;99.90
36660;DHT22;22654;51.054;3.654;2023-04-15T05:43:05;10.10;99.90
36660;DHT22;22654;51.054;3.654;2023-04-15T05:45:31;10.20;99.90
36660;DHT22;22654;51.054;3.654;2023-04-15T05:47:57;10.00;99.90
36660;DHT22;22654;51.054;3.654;2023-04-15T05:50:23;9.90;99.90
36660;DHT22;22654;51.054;3.654;2023-04-15T05:52:54;9.60;99.90
36660;DHT22;22654;51.054;3.654;2023-04-15T05:55:20;9.60;99.90
36660;DHT22;22654;51.054;3.654;2023-04-15T05:57:47;9.50;99.90
36660;DHT22;22654;51.054;3.654;2023-04-15T06:00:13;9.30;99.90
36660;DHT22;22654;51.054;3.654;2023-04-15T06:02:41;9.30;99.90
36660;DHT22;22654;51.054;3.654;2023-04-15T06:05:07;9.60;99.90
36660;DHT22;22654;51.054;3.654;2023-04-15T06:07:34;9.60;99.90
36660;DHT22;22654;51.054;3.654;2023-04-15T06:10:01;9.50;99.90
36660;DHT22;22654;51.054;3.654;2023-04-15T06:12:27;9.80;99.90
36660;DHT22;22654;51.054;3.654;2023-04-15T06:14:53;9.90;99.90
36660;DHT22;22654;51.054;3.654;2023-04-15T06:17:18;10.00;99.90
36660;DHT22;22654;51.054;3.654;2023-04-15T06:19:44;10.30;99.90
36660;DHT22;22654;51.054;3.654;2023-04-15T06:22:10;10.30;99.90
36660;DHT22;22654;51.054;3.654;2023-04-15T06:24:36;10.20;99.90
36660;DHT22;22654;51.054;3.654;2023-04-15T06:27:01;10.40;99.90
36660;DHT22;22654;51.054;3.654;2023-04-15T06:29:27;10.50;99.90
36660;DHT22;22654;51.054;3.654;2023-04-15T06:31:53;11.10;99.90
36660;DHT22;22654;51.054;3.654;2023-04-15T06:34:20;11.40;99.90
36660;DHT22;22654;51.054;3.654;2023-04-15T06:36:46;11.30;99.90
36660;DHT22;22654;51.054;3.654;2023-04-15T06:39:15;11.10;99.90
36660;DHT22;22654;51.054;3.654;2023-04-15T06:41:41;11.20;99.90
36660;DHT22;22654;51.054;3.654;2023-04-15T06:44:07;11.30;99.90
36660;DHT22;22654;51.054;3.654;2023-04-15T06:46:33;11.50;99.90
36660;DHT22;22654;51.054;3.654;2023-04-15T06:48:59;11.50;99.90
36660;DHT22;22654;51.054;3.654;2023-04-15T06:51:24;11.70;99.90
36660;DHT22;22654;51.054;3.654;2023-04-15T06:53:51;11.80;99.90
36660;DHT22;22654;51.054;3.654;2023-04-15T06:56:17;11.90;99.90
36660;DHT22;22654;51.054;3.654;2023-04-15T06:58:42;12.10;99.90
36660;DHT22;22654;51.054;3.654;2023-04-15T07:01:08;12.30;99.90
36660;DHT22;22654;51.054;3.654;2023-04-15T07:03:34;12.60;99.90
36660;DHT22;22654;51.054;3.654;2023-04-15T07:06:00;13.00;99.90
36660;DHT22;22654;51.054;3.654;2023-04-15T07:08:31;13.50;99.90
36660;DHT22;22654;51.054;3.654;2023-04-15T07:10:57;13.70;99.90
36660;DHT22;22654;51.054;3.654;2023-04-15T07:13:22;13.90;99.90
36660;DHT22;22654;51.054;3.654;2023-04-15T07:15:48;13.90;99.90
36660;DHT22;22654;51.054;3.654;2023-04-15T07:18:14;13.80;99.90
36660;DHT22;22654;51.054;3.654;2023-04-15T07:20:39;13.60;99.90
36660;DHT22;22654;51.054;3.654;2023-04-15T07:23:05;13.70;99.90
36660;DHT22;22654;51.054;3.654;2023-04-15T07:25:31;13.70;99.90
36660;DHT22;22654;51.054;3.654;2023-04-15T07:27:57;13.60;99.90
36660;DHT22;22654;51.054;3.654;2023-04-15T07:30:23;13.60;99.90
36660;DHT22;22654;51.054;3.654;2023-04-15T07:32:48;13.50;99.90
36660;DHT22;22654;51.054;3.654;2023-04-15T07:35:14;13.40;99.90
36660;DHT22;22654;51.054;3.654;2023-04-15T07:37:40;13.10;99.90
36660;DHT22;22654;51.054;3.654;2023-04-15T07:40:07;12.70;99.90
36660;DHT22;22654;51.054;3.654;2023-04-15T07:42:33;12.10;99.90
36660;DHT22;22654;51.054;3.654;2023-04-15T07:44:59;11.90;99.90
36660;DHT22;22654;51.054;3.654;2023-04-15T07:47:25;11.70;99.90
36660;DHT22;22654;51.054;3.654;2023-04-15T07:49:51;11.30;99.90
36660;DHT22;22654;51.054;3.654;2023-04-15T07:52:17;11.10;99.90
36660;DHT22;22654;51.054;3.654;2023-04-15T07:54:43;11.10;99.90
36660;DHT22;22654;51.054;3.654;2023-04-15T07:57:10;11.30;99.90
36660;DHT22;22654;51.054;3.654;2023-04-15T07:59:35;11.40;99.90
36660;DHT22;22654;51.054;3.654;2023-04-15T08:02:01;11.30;99.90
36660;DHT22;22654;51.054;3.654;2023-04-15T08:04:27;11.40;99.90
36660;DHT22;22654;51.054;3.654;2023-04-15T08:06:53;11.80;99.90
36660;DHT22;22654;51.054;3.654;2023-04-15T08:09:19;12.10;99.90
36660;DHT22;22654;51.054;3.654;2023-04-15T08:11:47;12.40;99.90
36660;DHT22;22654;51.054;3.654;2023-04-15T08:14:13;12.40;99.90
36660;DHT22;22654;51.054;3.654;2023-04-15T08:16:38;12.40;99.90
36660;DHT22;22654;51.054;3.654;2023-04-15T08:19:05;12.30;99.90
36660;DHT22;22654;51.054;3.654;2023-04-15T08:21:30;12.20;99.90
36660;DHT22;22654;51.054;3.654;2023-04-15T08:23:56;12.20;99.90
36660;DHT22;22654;51.054;3.654;2023-04-15T08:26:22;12.50;99.90
36660;DHT22;22654;51.054;3.654;2023-04-15T08:28:48;12.50;99.90
36660;DHT22;22654;51.054;3.654;2023-04-15T08:31:14;12.60;99.90
36660;DHT22;22654;51.054;3.654;2023-04-15T08:33:40;12.60;99.90
36660;DHT22;22654;51.054;3.654;2023-04-15T08:36:06;12.40;99.90
36660;DHT22;22654;51.054;3.654;2023-04-15T08:38:33;12.50;99.90
36660;DHT22;22654;51.054;3.654;2023-04-15T08:41:03;12.70;99.90
36660;DHT22;22654;51.054;3.654;2023-04-15T08:43:33;12.50;99.90
36660;DHT22;22654;51.054;3.654;2023-04-15T08:46:00;12.50;99.90
36660;DHT22;22654;51.054;3.654;2023-04-15T08:48:27;12.60;99.90
36660;DHT22;22654;51.054;3.654;2023-04-15T08:50:53;12.60;99.90
36660;DHT22;22654;51.054;3.654;2023-04-15T08:53:19;12.90;99.90
36660;DHT22;22654;51.054;3.654;2023-04-15T08:55:46;13.30;99.90
36660;DHT22;22654;51.054;3.654;2023-04-15T08:58:14;13.40;99.90
36660;DHT22;22654;51.054;3.654;2023-04-15T09:00:40;13.50;99.90
36660;DHT22;22654;51.054;3.654;2023-04-15T09:03:06;13.50;99.90
36660;DHT22;22654;51.054;3.654;2023-04-15T09:05:34;13.50;99.90
36660;DHT22;22654;51.054;3.654;2023-04-15T09:08:00;13.70;99.90
36660;DHT22;22654;51.054;3.654;2023-04-15T09:10:27;13.60;99.90
36660;DHT22;22654;51.054;3.654;2023-04-15T09:12:53;13.60;99.90
36660;DHT22;22654;51.054;3.654;2023-04-15T09:15:19;13.70;99.90
36660;DHT22;22654;51.054;3.654;2023-04-15T09:17:45;13.60;99.90
36660;DHT22;22654;51.054;3.654;2023-04-15T09:20:11;13.70;99.90
36660;DHT22;22654;51.054;3.654;2023-04-15T09:22:41;13.50;99.90
36660;DHT22;22654;51.054;3.654;2023-04-15T09:27:48;13.70;99.90
36660;DHT22;22654;51.054;3.654;2023-04-15T09:30:14;13.60;99.90
36660;DHT22;22654;51.054;3.654;2023-04-15T09:32:51;13.80;99.90
36660;DHT22;22654;51.054;3.654;2023-04-15T09:35:17;14.00;99.90
36660;DHT22;22654;51.054;3.654;2023-04-15T09:37:43;13.90;99.90
36660;DHT22;22654;51.054;3.654;2023-04-15T09:40:09;14.10;99.90
36660;DHT22;22654;51.054;3.654;2023-04-15T09:42:35;13.90;99.90
36660;DHT22;22654;51.054;3.654;2023-04-15T09:45:10;13.80;99.90
36660;DHT22;22654;51.054;3.654;2023-04-15T09:47:39;13.70;99.90
36660;DHT22;22654;51.054;3.654;2023-04-15T09:50:05;13.80;99.90
36660;DHT22;22654;51.054;3.654;2023-04-15T09:52:30;13.80;99.90
36660;DHT22;22654;51.054;3.654;2023-04-15T09:54:57;13.90;99.90
36660;DHT22;22654;51.054;3.654;2023-04-15T09:57:23;13.60;99.90
36660;DHT22;22654;51.054;3.654;2023-04-15T09:59:49;13.30;99.90
36660;DHT22;22654;51.054;3.654;2023-04-15T10:02:15;13.40;99.90
36660;DHT22;22654;51.054;3.654;2023-04-15T10:04:42;13.40;99.90
36660;DHT22;22654;51.054;3.654;2023-04-15T10:07:09;13.30;99.90
36660;DHT22;22654;51.054;3.654;2023-04-15T10:09:35;13.30;99.90
36660;DHT22;22654;51.054;3.654;2023-04-15T10:12:04;13.50;99.90
36660;DHT22;22654;51.054;3.654;2023-04-15T10:14:31;13.90;99.90
36660;DHT22;22654;51.054;3.654;2023-04-15T10:16:57;14.20;99.90
36660;DHT22;22654;51.054;3.654;2023-04-15T10:19:25;14.00;99.90
36660;DHT22;22654;51.054;3.654;2023-04-15T10:21:52;14.00;99.90
36660;DHT22;22654;51.054;3.654;2023-04-15T10:24:18;14.20;99.90
36660;DHT22;22654;51.054;3.654;2023-04-15T10:26:44;14.20;99.90
36660;DHT22;22654;51.054;3.654;2023-04-15T10:29:10;14.20;99.90
36660;DHT22;22654;51.054;3.654;2023-04-15T10:31:36;14.30;99.90
36660;DHT22;22654;51.054;3.654;2023-04-15T10:34:03;14.40;99.90
36660;DHT22;22654;51.054;3.654;2023-04-15T10:36:31;14.50;99.90
36660;DHT22;22654;51.054;3.654;2023-04-15T10:38:57;14.60;99.90
36660;DHT22;22654;51.054;3.654;2023-04-15T10:41:23;14.90;99.90
36660;DHT22;22654;51.054;3.654;2023-04-15T10:46:21;15.30;99.90
36660;DHT22;22654;51.054;3.654;2023-04-15T10:48:51;15.20;99.90
36660;DHT22;22654;51.054;3.654;2023-04-15T10:51:27;15.10;99.90
36660;DHT22;22654;51.054;3.654;2023-04-15T10:54:00;14.80;99.90
36660;DHT22;22654;51.054;3.654;2023-04-15T10:56:29;14.70;99.90
36660;DHT22;22654;51.054;3.654;2023-04-15T10:58:57;14.70;99.90
36660;DHT22;22654;51.054;3.654;2023-04-15T11:01:26;14.80;99.90
36660;DHT22;22654;51.054;3.654;2023-04-15T11:04:08;14.90;99.90
36660;DHT22;22654;51.054;3.654;2023-04-15T11:06:42;14.90;99.90
36660;DHT22;22654;51.054;3.654;2023-04-15T11:09:11;15.10;99.90
36660;DHT22;22654;51.054;3.654;2023-04-15T11:12:07;15.20;99.90
36660;DHT22;22654;51.054;3.654;2023-04-15T11:14:36;15.30;99.90
36660;DHT22;22654;51.054;3.654;2023-04-15T11:17:03;15.30;99.90
36660;DHT22;22654;51.054;3.654;2023-04-15T11:19:38;15.10;99.90
36660;DHT22;22654;51.054;3.654;2023-04-15T11:22:08;15.30;99.90
36660;DHT22;22654;51.054;3.654;2023-04-15T11:24:34;15.20;99.90
36660;DHT22;22654;51.054;3.654;2023-04-15T11:27:00;15.10;99.90
36660;DHT22;22654;51.054;3.654;2023-04-15T11:29:30;15.10;99.90
36660;DHT22;22654;51.054;3.654;2023-04-15T11:32:07;15.30;99.90
36660;DHT22;22654;51.054;3.654;2023-04-15T11:34:33;15.30;99.90
36660;DHT22;22654;51.054;3.654;2023-04-15T11:37:03;15.30;99.90
36660;DHT22;22654;51.054;3.654;2023-04-15T11:39:30;15.10;99.90
36660;DHT22;22654;51.054;3.654;2023-04-15T11:41:56;15.30;99.90
36660;DHT22;22654;51.054;3.654;2023-04-15T11:44:22;15.10;99.90
36660;DHT22;22654;51.054;3.654;2023-04-15T11:46:48;15.10;99.90
36660;DHT22;22654;51.054;3.654;2023-04-15T11:49:29;15.00;99.90
36660;DHT22;22654;51.054;3.654;2023-04-15T11:51:55;15.10;99.90
36660;DHT22;22654;51.054;3.654;2023-04-15T11:54:21;15.10;99.90
36660;DHT22;22654;51.054;3.654;2023-04-15T11:56:50;15.00;99.90
36660;DHT22;22654;51.054;3.654;2023-04-15T11:59:16;15.30;99.90
36660;DHT22;22654;51.054;3.654;2023-04-15T12:01:42;15.40;99.90
36660;DHT22;22654;51.054;3.654;2023-04-15T12:04:14;15.20;99.30
36660;DHT22;22654;51.054;3.654;2023-04-15T12:06:41;15.30;99.90
36660;DHT22;22654;51.054;3.654;2023-04-15T12:09:14;15.40;99.90
36660;DHT22;22654;51.054;3.654;2023-04-15T12:11:47;15.30;99.90
36660;DHT22;22654;51.054;3.654;2023-04-15T12:16:53;15.40;99.90
36660;DHT22;22654;51.054;3.654;2023-04-15T12:19:23;15.40;99.90
36660;DHT22;22654;51.054;3.654;2023-04-15T12:21:49;15.50;99.90
36660;DHT22;22654;51.054;3.654;2023-04-15T12:24:19;15.60;99.90
36660;DHT22;22654;51.054;3.654;2023-04-15T12:26:52;15.60;99.90
36660;DHT22;22654;51.054;3.654;2023-04-15T12:29:24;15.20;99.90
36660;DHT22;22654;51.054;3.654;2023-04-15T12:31:50;15.30;99.90
36660;DHT22;22654;51.054;3.654;2023-04-15T12:34:17;15.40;99.90
36660;DHT22;22654;51.054;3.654;2023-04-15T12:36:43;15.30;99.90
36660;DHT22;22654;51.054;3.654;2023-04-15T12:39:09;15.50;99.90
36660;DHT22;22654;51.054;3.654;2023-04-15T12:41:34;15.30;99.90
36660;DHT22;22654;51.054;3.654;2023-04-15T12:44:00;15.30;99.90
36660;DHT22;22654;51.054;3.654;2023-04-15T12:46:26;15.30;99.90
36660;DHT22;22654;51.054;3.654;2023-04-15T12:48:52;15.30;99.90
36660;DHT22;22654;51.054;3.654;2023-04-15T12:51:18;15.50;99.90
36660;DHT22;22654;51.054;3.654;2023-04-15T12:53:43;15.70;99.90
36660;DHT22;22654;51.054;3.654;2023-04-15T12:56:09;15.90;99.90
36660;DHT22;22654;51.054;3.654;2023-04-15T12:58:35;16.10;99.90
36660;DHT22;22654;51.054;3.654;2023-04-15T13:01:01;15.90;99.90
36660;DHT22;22654;51.054;3.654;2023-04-15T13:03:27;15.80;99.90
36660;DHT22;22654;51.054;3.654;2023-04-15T13:05:52;15.80;99.90
36660;DHT22;22654;51.054;3.654;2023-04-15T13:08:18;16.00;99.90
36660;DHT22;22654;51.054;3.654;2023-04-15T13:10:44;16.10;99.90
36660;DHT22;22654;51.054;3.654;2023-04-15T13:13:10;15.90;99.90
36660;DHT22;22654;51.054;3.654;2023-04-15T13:15:36;15.90;99.90
36660;DHT22;22654;51.054;3.654;2023-04-15T13:18:03;15.90;99.90
36660;DHT22;22654;51.054;3.654;2023-04-15T13:20:29;15.80;99.90
36660;DHT22;22654;51.054;3.654;2023-04-15T13:22:55;15.70;99.90
36660;DHT22;22654;51.054;3.654;2023-04-15T13:25:21;15.70;99.90
36660;DHT22;22654;51.054;3.654;2023-04-15T13:27:47;15.90;99.90
36660;DHT22;22654;51.054;3.654;2023-04-15T13:30:12;15.70;99.90
36660;DHT22;22654;51.054;3.654;2023-04-15T13:32:38;15.70;99.90
36660;DHT22;22654;51.054;3.654;2023-04-15T13:35:04;15.80;99.90
36660;DHT22;22654;51.054;3.654;2023-04-15T13:37:30;15.90;99.90
36660;DHT22;22654;51.054;3.654;2023-04-15T13:39:56;16.30;99.90
36660;DHT22;22654;51.054;3.654;2023-04-15T13:42:22;16.50;99.90
36660;DHT22;22654;51.054;3.654;2023-04-15T13:44:51;16.70;99.90
36660;DHT22;22654;51.054;3.654;2023-04-15T13:47:20;16.70;99.90
36660;DHT22;22654;51.054;3.654;2023-04-15T13:49:46;16.70;99.90
36660;DHT22;22654;51.054;3.654;2023-04-15T13:52:12;16.70;99.90
36660;DHT22;22654;51.054;3.654;2023-04-15T13:54:37;16.40;99.90
36660;DHT22;22654;51.054;3.654;2023-04-15T13:57:04;16.40;99.90
36660;DHT22;22654;51.054;3.654;2023-04-15T13:59:30;16.70;99.90
36660;DHT22;22654;51.054;3.654;2023-04-15T14:01:55;16.90;99.90
36660;DHT22;22654;51.054;3.654;2023-04-15T14:04:21;16.70;99.90
36660;DHT22;22654;51.054;3.654;2023-04-15T14:06:47;16.70;99.90
36660;DHT22;22654;51.054;3.654;2023-04-15T14:09:14;16.30;99.90
36660;DHT22;22654;51.054;3.654;2023-04-15T14:11:40;15.90;99.90
36660;DHT22;22654;51.054;3.654;2023-04-15T14:14:12;15.70;99.90
36660;DHT22;22654;51.054;3.654;2023-04-15T14:16:37;15.30;99.90
36660;DHT22;22654;51.054;3.654;2023-04-15T14:19:03;15.20;99.90
36660;DHT22;22654;51.054;3.654;2023-04-15T14:21:29;15.40;99.90
36660;DHT22;22654;51.054;3.654;2023-04-15T14:23:56;15.10;99.90
36660;DHT22;22654;51.054;3.654;2023-04-15T14:26:22;15.10;99.90
36660;DHT22;22654;51.054;3.654;2023-04-15T14:28:47;15.20;99.90
36660;DHT22;22654;51.054;3.654;2023-04-15T14:31:13;15.30;99.90
36660;DHT22;22654;51.054;3.654;2023-04-15T14:33:39;15.40;99.90
36660;DHT22;22654;51.054;3.654;2023-04-15T14:36:05;15.50;99.90
36660;DHT22;22654;51.054;3.654;2023-04-15T14:38:33;15.30;99.90
36660;DHT22;22654;51.054;3.654;2023-04-15T14:41:06;15.00;99.90
36660;DHT22;22654;51.054;3.654;2023-04-15T14:43:32;15.10;99.90
36660;DHT22;22654;51.054;3.654;2023-04-15T14:45:58;15.00;99.90
36660;DHT22;22654;51.054;3.654;2023-04-15T14:48:24;14.90;99.90
36660;DHT22;22654;51.054;3.654;2023-04-15T14:50:50;15.10;99.90
36660;DHT22;22654;51.054;3.654;2023-04-15T14:53:16;15.20;99.90
36660;DHT22;22654;51.054;3.654;2023-04-15T14:55:42;15.00;99.90
36660;DHT22;22654;51.054;3.654;2023-04-15T14:58:08;15.10;99.90
36660;DHT22;22654;51.054;3.654;2023-04-15T15:00:34;15.10;99.90
36660;DHT22;22654;51.054;3.654;2023-04-15T15:03:00;15.20;99.90
36660;DHT22;22654;51.054;3.654;2023-04-15T15:05:26;15.00;99.90
36660;DHT22;22654;51.054;3.654;2023-04-15T15:07:52;15.10;99.90
36660;DHT22;22654;51.054;3.654;2023-04-15T15:10:17;15.10;99.90
36660;DHT22;22654;51.054;3.654;2023-04-15T15:12:43;15.10;99.90
36660;DHT22;22654;51.054;3.654;2023-04-15T15:15:09;14.90;99.90
36660;DHT22;22654;51.054;3.654;2023-04-15T15:17:35;14.60;99.90
36660;DHT22;22654;51.054;3.654;2023-04-15T15:20:00;14.30;99.90
36660;DHT22;22654;51.054;3.654;2023-04-15T15:22:27;14.30;99.90
36660;DHT22;22654;51.054;3.654;2023-04-15T15:24:53;14.30;99.90
36660;DHT22;22654;51.054;3.654;2023-04-15T15:27:19;14.10;99.90
36660;DHT22;22654;51.054;3.654;2023-04-15T15:29:45;13.90;99.90
36660;DHT22;22654;51.054;3.654;2023-04-15T15:32:11;14.00;99.90
36660;DHT22;22654;51.054;3.654;2023-04-15T15:34:39;14.20;99.90
36660;DHT22;22654;51.054;3.654;2023-04-15T15:37:08;14.20;99.90
36660;DHT22;22654;51.054;3.654;2023-04-15T15:39:37;14.30;99.90